sensor_id;sensor_type;location;lat;lon;timestamp;temperature;humidity
12872;DHT22;6504;53.766;9.626;2022-08-23T00:00:53;20.20;99.90
12872;DHT22;6504;53.766;9.626;2022-08-23T00:03:39;20.20;99.90
12872;DHT22;6504;53.766;9.626;2022-08-23T00:06:29;20.20;99.90
12872;DHT22;6504;53.766;9.626;2022-08-23T00:09:16;20.20;99.90
12872;DHT22;6504;53.766;9.626;2022-08-23T00:12:08;20.20;99.90
12872;DHT22;6504;53.766;9.626;2022-08-23T00:14:54;20.30;99.90
12872;DHT22;6504;53.766;9.626;2022-08-23T00:17:40;20.30;99.90
12872;DHT22;6504;53.766;9.626;2022-08-23T00:20:29;20.30;99.90
12872;DHT22;6504;53.766;9.626;2022-08-23T00:23:14;20.30;99.90
12872;DHT22;6504;53.766;9.626;2022-08-23T00:26:01;20.20;99.90
12872;DHT22;6504;53.766;9.626;2022-08-23T00:28:48;20.20;99.90
12872;DHT22;6504;53.766;9.626;2022-08-23T00:31:34;20.20;99.90
12872;DHT22;6504;53.766;9.626;2022-08-23T00:34:19;20.20;99.90
12872;DHT22;6504;53.766;9.626;2022-08-23T00:37:09;20.20;99.90
12872;DHT22;6504;53.766;9.626;2022-08-23T00:39:55;20.20;99.90
12872;DHT22;6504;53.766;9.626;2022-08-23T00:42:43;20.20;99.90
12872;DHT22;6504;53.766;9.626;2022-08-23T00:45:57;20.10;99.90
12872;DHT22;6504;53.766;9.626;2022-08-23T00:49:09;20.20;99.90
12872;DHT22;6504;53.766;9.626;2022-08-23T00:52:00;20.10;99.90
12872;DHT22;6504;53.766;9.626;2022-08-23T00:54:54;20.10;99.90
12872;DHT22;6504;53.766;9.626;2022-08-23T00:57:41;20.10;99.90
12872;DHT22;6504;53.766;9.626;2022-08-23T01:00:27;20.10;99.90
12872;DHT22;6504;53.766;9.626;2022-08-23T01:03:14;20.10;99.90
12872;DHT22;6504;53.766;9.626;2022-08-23T01:06:06;20.10;99.90
12872;DHT22;6504;53.766;9.626;2022-08-23T01:08:57;20.10;99.90
12872;DHT22;6504;53.766;9.626;2022-08-23T01:11:49;20.10;99.90
12872;DHT22;6504;53.766;9.626;2022-08-23T01:14:43;20.10;99.90
12872;DHT22;6504;53.766;9.626;2022-08-23T01:17:35;20.00;99.90
12872;DHT22;6504;53.766;9.626;2022-08-23T01:20:33;20.00;99.90
12872;DHT22;6504;53.766;9.626;2022-08-23T01:23:27;20.00;99.90
12872;DHT22;6504;53.766;9.626;2022-08-23T01:26:19;20.00;99.90
12872;DHT22;6504;53.766;9.626;2022-08-23T01:29:06;20.00;99.90
12872;DHT22;6504;53.766;9.626;2022-08-23T01:31:52;20.00;99.90
12872;DHT22;6504;53.766;9.626;2022-08-23T01:34:43;19.90;99.90
12872;DHT22;6504;53.766;9.626;2022-08-23T01:37:29;19.90;99.90
12872;DHT22;6504;53.766;9.626;2022-08-23T01:40:17;19.90;99.90
12872;DHT22;6504;53.766;9.626;2022-08-23T01:43:04;19.90;99.90
12872;DHT22;6504;53.766;9.626;2022-08-23T01:45:50;19.90;99.90
12872;DHT22;6504;53.766;9.626;2022-08-23T01:48:39;19.90;99.90
12872;DHT22;6504;53.766;9.626;2022-08-23T01:51:25;19.90;99.90
12872;DHT22;6504;53.766;9.626;2022-08-23T01:54:11;19.90;99.90
12872;DHT22;6504;53.766;9.626;2022-08-23T01:56:43;19.90;99.90
12872;DHT22;6504;53.766;9.626;2022-08-23T01:59:12;19.90;99.90
12872;DHT22;6504;53.766;9.626;2022-08-23T02:01:40;19.90;99.90
12872;DHT22;6504;53.766;9.626;2022-08-23T02:04:10;19.90;99.90
12872;DHT22;6504;53.766;9.626;2022-08-23T02:06:39;19.90;99.90
12872;DHT22;6504;53.766;9.626;2022-08-23T02:09:10;19.90;99.90
12872;DHT22;6504;53.766;9.626;2022-08-23T02:11:45;19.90;99.90
12872;DHT22;6504;53.766;9.626;2022-08-23T02:14:16;19.90;99.90
12872;DHT22;6504;53.766;9.626;2022-08-23T02:16:47;19.90;99.90
12872;DHT22;6504;53.766;9.626;2022-08-23T02:19:30;19.90;99.90
12872;DHT22;6504;53.766;9.626;2022-08-23T02:22:01;19.90;99.90
12872;DHT22;6504;53.766;9.626;2022-08-23T02:24:29;19.80;99.90
12872;DHT22;6504;53.766;9.626;2022-08-23T02:27:02;19.80;99.90
12872;DHT22;6504;53.766;9.626;2022-08-23T02:29:32;19.80;99.90
12872;DHT22;6504;53.766;9.626;2022-08-23T02:32:06;19.80;99.90
12872;DHT22;6504;53.766;9.626;2022-08-23T02:34:36;19.80;99.90
12872;DHT22;6504;53.766;9.626;2022-08-23T02:37:08;19.80;99.90
12872;DHT22;6504;53.766;9.626;2022-08-23T02:39:37;19.70;99.90
12872;DHT22;6504;53.766;9.626;2022-08-23T02:42:10;19.70;99.90
12872;DHT22;6504;53.766;9.626;2022-08-23T02:44:39;19.70;99.90
12872;DHT22;6504;53.766;9.626;2022-08-23T02:47:10;19.70;99.90
12872;DHT22;6504;53.766;9.626;2022-08-23T02:49:38;19.70;99.90
12872;DHT22;6504;53.766;9.626;2022-08-23T02:52:07;19.70;99.90
12872;DHT22;6504;53.766;9.626;2022-08-23T02:54:35;19.70;99.90
12872;DHT22;6504;53.766;9.626;2022-08-23T02:57:04;19.60;99.90
12872;DHT22;6504;53.766;9.626;2022-08-23T02:59:35;19.60;99.90
12872;DHT22;6504;53.766;9.626;2022-08-23T03:02:04;19.60;99.90
12872;DHT22;6504;53.766;9.626;2022-08-23T03:04:32;19.60;99.90
12872;DHT22;6504;53.766;9.626;2022-08-23T03:07:03;19.60;99.90
12872;DHT22;6504;53.766;9.626;2022-08-23T03:09:31;19.60;99.90
12872;DHT22;6504;53.766;9.626;2022-08-23T03:11:59;19.60;99.90
12872;DHT22;6504;53.766;9.626;2022-08-23T03:14:27;19.60;99.90
12872;DHT22;6504;53.766;9.626;2022-08-23T03:16:58;19.60;99.90
12872;DHT22;6504;53.766;9.626;2022-08-23T03:19:26;19.60;99.90
12872;DHT22;6504;53.766;9.626;2022-08-23T03:21:54;19.60;99.90
12872;DHT22;6504;53.766;9.626;2022-08-23T03:24:23;19.60;99.90
12872;DHT22;6504;53.766;9.626;2022-08-23T03:26:51;19.60;99.90
12872;DHT22;6504;53.766;9.626;2022-08-23T03:29:21;19.60;99.90
12872;DHT22;6504;53.766;9.626;2022-08-23T03:31:50;19.50;99.90
12872;DHT22;6504;53.766;9.626;2022-08-23T03:34:22;19.50;99.90
12872;DHT22;6504;53.766;9.626;2022-08-23T03:36:51;19.50;99.90
12872;DHT22;6504;53.766;9.626;2022-08-23T03:39:19;19.50;99.90
12872;DHT22;6504;53.766;9.626;2022-08-23T03:41:47;19.40;99.90
12872;DHT22;6504;53.766;9.626;2022-08-23T03:44:15;19.40;99.90
12872;DHT22;6504;53.766;9.626;2022-08-23T03:46:50;19.40;99.90
12872;DHT22;6504;53.766;9.626;2022-08-23T03:49:23;19.40;99.90
12872;DHT22;6504;53.766;9.626;2022-08-23T03:51:51;19.40;99.90
12872;DHT22;6504;53.766;9.626;2022-08-23T03:54:20;19.40;99.90
12872;DHT22;6504;53.766;9.626;2022-08-23T03:56:53;19.40;99.90
12872;DHT22;6504;53.766;9.626;2022-08-23T03:59:24;19.30;99.90
12872;DHT22;6504;53.766;9.626;2022-08-23T04:01:53;19.30;99.90
12872;DHT22;6504;53.766;9.626;2022-08-23T04:04:29;19.30;99.90
12872;DHT22;6504;53.766;9.626;2022-08-23T04:06:57;19.30;99.90
12872;DHT22;6504;53.766;9.626;2022-08-23T04:09:28;19.30;99.90
12872;DHT22;6504;53.766;9.626;2022-08-23T04:11:56;19.30;99.90
12872;DHT22;6504;53.766;9.626;2022-08-23T04:14:25;19.30;99.90
12872;DHT22;6504;53.766;9.626;2022-08-23T04:16:55;19.30;99.90
12872;DHT22;6504;53.766;9.626;2022-08-23T04:19:23;19.30;99.90
12872;DHT22;6504;53.766;9.626;2022-08-23T04:21:53;19.30;99.90
12872;DHT22;6504;53.766;9.626;2022-08-23T04:24:21;19.30;99.90
12872;DHT22;6504;53.766;9.626;2022-08-23T04:26:52;19.30;99.90
12872;DHT22;6504;53.766;9.626;2022-08-23T04:29:21;19.30;99.90
12872;DHT22;6504;53.766;9.626;2022-08-23T04:32:00;19.30;99.90
12872;DHT22;6504;53.766;9.626;2022-08-23T04:34:37;19.30;99.90
12872;DHT22;6504;53.766;9.626;2022-08-23T04:37:07;19.30;99.90
12872;DHT22;6504;53.766;9.626;2022-08-23T04:39:35;19.30;99.90
12872;DHT22;6504;53.766;9.626;2022-08-23T04:42:20;19.30;99.90
12872;DHT22;6504;53.766;9.626;2022-08-23T04:44:51;19.30;99.90
12872;DHT22;6504;53.766;9.626;2022-08-23T04:47:19;19.30;99.90
12872;DHT22;6504;53.766;9.626;2022-08-23T04:49:47;19.30;99.90
12872;DHT22;6504;53.766;9.626;2022-08-23T04:52:17;19.30;99.90
12872;DHT22;6504;53.766;9.626;2022-08-23T04:54:48;19.30;99.90
12872;DHT22;6504;53.766;9.626;2022-08-23T04:57:16;19.30;99.90
12872;DHT22;6504;53.766;9.626;2022-08-23T04:59:44;19.30;99.90
12872;DHT22;6504;53.766;9.626;2022-08-23T05:02:13;19.20;99.90
12872;DHT22;6504;53.766;9.626;2022-08-23T05:04:41;19.20;99.90
12872;DHT22;6504;53.766;9.626;2022-08-23T05:07:12;19.20;99.90
12872;DHT22;6504;53.766;9.626;2022-08-23T05:09:42;19.20;99.90
12872;DHT22;6504;53.766;9.626;2022-08-23T05:12:14;19.20;99.90
12872;DHT22;6504;53.766;9.626;2022-08-23T05:14:48;19.10;99.90
12872;DHT22;6504;53.766;9.626;2022-08-23T05:17:16;19.10;99.90
12872;DHT22;6504;53.766;9.626;2022-08-23T05:19:44;19.10;99.90
12872;DHT22;6504;53.766;9.626;2022-08-23T05:22:13;19.10;99.90
12872;DHT22;6504;53.766;9.626;2022-08-23T05:24:45;19.10;99.90
12872;DHT22;6504;53.766;9.626;2022-08-23T05:27:13;19.10;99.90
12872;DHT22;6504;53.766;9.626;2022-08-23T05:29:41;19.10;99.90
12872;DHT22;6504;53.766;9.626;2022-08-23T05:32:09;19.10;99.90
12872;DHT22;6504;53.766;9.626;2022-08-23T05:34:38;19.10;99.90
12872;DHT22;6504;53.766;9.626;2022-08-23T05:37:09;19.10;99.90
12872;DHT22;6504;53.766;9.626;2022-08-23T05:39:37;19.10;99.90
12872;DHT22;6504;53.766;9.626;2022-08-23T05:42:14;19.10;99.90
12872;DHT22;6504;53.766;9.626;2022-08-23T05:44:43;19.10;99.90
12872;DHT22;6504;53.766;9.626;2022-08-23T05:47:13;19.10;99.90
12872;DHT22;6504;53.766;9.626;2022-08-23T05:49:42;19.10;99.90
12872;DHT22;6504;53.766;9.626;2022-08-23T05:52:12;19.20;99.90
12872;DHT22;6504;53.766;9.626;2022-08-23T05:54:43;19.20;99.90
12872;DHT22;6504;53.766;9.626;2022-08-23T05:57:14;19.20;99.90
12872;DHT22;6504;53.766;9.626;2022-08-23T05:59:47;19.20;99.90
12872;DHT22;6504;53.766;9.626;2022-08-23T06:02:17;19.20;99.90
12872;DHT22;6504;53.766;9.626;2022-08-23T06:04:48;19.30;99.90
12872;DHT22;6504;53.766;9.626;2022-08-23T06:07:21;19.30;99.90
12872;DHT22;6504;53.766;9.626;2022-08-23T06:09:49;19.30;99.90
12872;DHT22;6504;53.766;9.626;2022-08-23T06:12:22;19.30;99.90
12872;DHT22;6504;53.766;9.626;2022-08-23T06:14:50;19.40;99.90
12872;DHT22;6504;53.766;9.626;2022-08-23T06:17:19;19.40;99.90
12872;DHT22;6504;53.766;9.626;2022-08-23T06:19:49;19.40;99.90
12872;DHT22;6504;53.766;9.626;2022-08-23T06:22:20;19.40;99.90
12872;DHT22;6504;53.766;9.626;2022-08-23T06:24:49;19.50;99.90
12872;DHT22;6504;53.766;9.626;2022-08-23T06:27:21;19.50;99.90
12872;DHT22;6504;53.766;9.626;2022-08-23T06:29:50;19.50;99.90
12872;DHT22;6504;53.766;9.626;2022-08-23T06:32:18;19.50;99.90
12872;DHT22;6504;53.766;9.626;2022-08-23T06:34:49;19.60;99.90
12872;DHT22;6504;53.766;9.626;2022-08-23T06:37:37;19.60;99.90
12872;DHT22;6504;53.766;9.626;2022-08-23T06:40:06;19.60;99.90
12872;DHT22;6504;53.766;9.626;2022-08-23T06:42:36;19.60;99.90
12872;DHT22;6504;53.766;9.626;2022-08-23T06:45:05;19.60;99.90
12872;DHT22;6504;53.766;9.626;2022-08-23T06:47:33;19.70;99.90
12872;DHT22;6504;53.766;9.626;2022-08-23T06:50:02;19.70;99.90
12872;DHT22;6504;53.766;9.626;2022-08-23T06:52:33;19.90;99.90
12872;DHT22;6504;53.766;9.626;2022-08-23T06:55:03;19.90;99.90
12872;DHT22;6504;53.766;9.626;2022-08-23T06:57:38;20.10;99.90
12872;DHT22;6504;53.766;9.626;2022-08-23T07:00:08;20.20;99.90
12872;DHT22;6504;53.766;9.626;2022-08-23T07:02:37;20.20;99.90
12872;DHT22;6504;53.766;9.626;2022-08-23T07:05:06;20.30;99.90
12872;DHT22;6504;53.766;9.626;2022-08-23T07:07:34;20.40;99.90
12872;DHT22;6504;53.766;9.626;2022-08-23T07:10:10;20.50;99.90
12872;DHT22;6504;53.766;9.626;2022-08-23T07:12:43;20.60;99.90
12872;DHT22;6504;53.766;9.626;2022-08-23T07:15:11;20.70;99.90
12872;DHT22;6504;53.766;9.626;2022-08-23T07:17:42;20.70;99.90
12872;DHT22;6504;53.766;9.626;2022-08-23T07:20:10;20.80;99.90
12872;DHT22;6504;53.766;9.626;2022-08-23T07:22:38;20.90;99.90
12872;DHT22;6504;53.766;9.626;2022-08-23T07:25:10;21.00;99.90
12872;DHT22;6504;53.766;9.626;2022-08-23T07:27:38;21.10;99.90
12872;DHT22;6504;53.766;9.626;2022-08-23T07:30:08;21.20;99.90
12872;DHT22;6504;53.766;9.626;2022-08-23T07:32:36;21.20;99.90
12872;DHT22;6504;53.766;9.626;2022-08-23T07:35:11;21.20;99.90
12872;DHT22;6504;53.766;9.626;2022-08-23T07:37:39;21.30;99.90
12872;DHT22;6504;53.766;9.626;2022-08-23T07:40:09;21.30;99.90
12872;DHT22;6504;53.766;9.626;2022-08-23T07:42:46;21.40;99.90
12872;DHT22;6504;53.766;9.626;2022-08-23T07:45:18;21.50;99.90
12872;DHT22;6504;53.766;9.626;2022-08-23T07:47:49;21.50;99.90
12872;DHT22;6504;53.766;9.626;2022-08-23T07:50:20;21.60;99.90
12872;DHT22;6504;53.766;9.626;2022-08-23T07:52:49;21.70;99.90
12872;DHT22;6504;53.766;9.626;2022-08-23T07:55:20;21.80;99.90
12872;DHT22;6504;53.766;9.626;2022-08-23T07:57:48;22.00;99.90
12872;DHT22;6504;53.766;9.626;2022-08-23T08:00:20;22.00;99.90
12872;DHT22;6504;53.766;9.626;2022-08-23T08:02:48;22.10;99.90
12872;DHT22;6504;53.766;9.626;2022-08-23T08:05:17;22.30;99.90
12872;DHT22;6504;53.766;9.626;2022-08-23T08:07:50;22.30;99.90
12872;DHT22;6504;53.766;9.626;2022-08-23T08:10:18;22.50;99.90
12872;DHT22;6504;53.766;9.626;2022-08-23T08:12:46;22.70;99.90
12872;DHT22;6504;53.766;9.626;2022-08-23T08:15:14;22.80;99.90
12872;DHT22;6504;53.766;9.626;2022-08-23T08:17:48;22.90;99.90
12872;DHT22;6504;53.766;9.626;2022-08-23T08:20:16;22.90;99.90
12872;DHT22;6504;53.766;9.626;2022-08-23T08:22:45;23.00;99.90
12872;DHT22;6504;53.766;9.626;2022-08-23T08:25:26;23.00;99.90
12872;DHT22;6504;53.766;9.626;2022-08-23T08:27:57;23.10;99.90
12872;DHT22;6504;53.766;9.626;2022-08-23T08:30:25;23.20;99.90
12872;DHT22;6504;53.766;9.626;2022-08-23T08:32:56;23.30;99.90
12872;DHT22;6504;53.766;9.626;2022-08-23T08:35:25;23.40;99.90
12872;DHT22;6504;53.766;9.626;2022-08-23T08:37:53;23.50;99.90
12872;DHT22;6504;53.766;9.626;2022-08-23T08:40:29;23.70;99.90
12872;DHT22;6504;53.766;9.626;2022-08-23T08:43:10;23.70;99.90
12872;DHT22;6504;53.766;9.626;2022-08-23T08:45:54;23.90;99.90
12872;DHT22;6504;53.766;9.626;2022-08-23T08:48:29;23.90;99.90
12872;DHT22;6504;53.766;9.626;2022-08-23T08:51:04;24.00;99.90
12872;DHT22;6504;53.766;9.626;2022-08-23T08:53:39;24.20;99.90
12872;DHT22;6504;53.766;9.626;2022-08-23T08:56:16;24.20;99.90
12872;DHT22;6504;53.766;9.626;2022-08-23T08:58:49;24.20;99.90
12872;DHT22;6504;53.766;9.626;2022-08-23T09:01:21;24.30;99.90
12872;DHT22;6504;53.766;9.626;2022-08-23T09:03:53;24.30;99.90
12872;DHT22;6504;53.766;9.626;2022-08-23T09:06:32;24.40;99.90
12872;DHT22;6504;53.766;9.626;2022-08-23T09:09:12;24.50;99.90
12872;DHT22;6504;53.766;9.626;2022-08-23T09:11:53;24.60;99.90
12872;DHT22;6504;53.766;9.626;2022-08-23T09:14:55;24.70;99.90
12872;DHT22;6504;53.766;9.626;2022-08-23T09:17:29;24.80;99.90
12872;DHT22;6504;53.766;9.626;2022-08-23T09:20:04;24.90;99.90
12872;DHT22;6504;53.766;9.626;2022-08-23T09:22:39;25.00;99.90
12872;DHT22;6504;53.766;9.626;2022-08-23T09:25:09;25.00;99.90
12872;DHT22;6504;53.766;9.626;2022-08-23T09:27:41;25.10;99.90
12872;DHT22;6504;53.766;9.626;2022-08-23T09:30:12;25.10;99.90
12872;DHT22;6504;53.766;9.626;2022-08-23T09:32:45;25.10;99.90
12872;DHT22;6504;53.766;9.626;2022-08-23T09:35:19;25.20;99.90
12872;DHT22;6504;53.766;9.626;2022-08-23T09:37:54;25.30;99.90
12872;DHT22;6504;53.766;9.626;2022-08-23T09:40:34;25.30;99.90
12872;DHT22;6504;53.766;9.626;2022-08-23T09:43:13;25.40;99.90
12872;DHT22;6504;53.766;9.626;2022-08-23T09:45:57;25.50;99.90
12872;DHT22;6504;53.766;9.626;2022-08-23T09:48:44;25.60;99.90
12872;DHT22;6504;53.766;9.626;2022-08-23T09:51:18;25.70;99.90
12872;DHT22;6504;53.766;9.626;2022-08-23T09:54:02;25.80;99.90
12872;DHT22;6504;53.766;9.626;2022-08-23T09:56:35;25.90;99.90
12872;DHT22;6504;53.766;9.626;2022-08-23T09:59:34;25.90;99.90
12872;DHT22;6504;53.766;9.626;2022-08-23T10:02:12;25.80;99.90
12872;DHT22;6504;53.766;9.626;2022-08-23T10:04:43;25.80;99.90
12872;DHT22;6504;53.766;9.626;2022-08-23T10:07:27;25.80;99.90
12872;DHT22;6504;53.766;9.626;2022-08-23T10:10:15;25.80;99.90
12872;DHT22;6504;53.766;9.626;2022-08-23T10:12:44;25.90;99.90
12872;DHT22;6504;53.766;9.626;2022-08-23T10:15:17;26.00;99.90
12872;DHT22;6504;53.766;9.626;2022-08-23T10:17:51;26.10;99.90
12872;DHT22;6504;53.766;9.626;2022-08-23T10:20:30;26.20;99.90
12872;DHT22;6504;53.766;9.626;2022-08-23T10:23:13;26.40;99.90
12872;DHT22;6504;53.766;9.626;2022-08-23T10:25:48;26.40;99.90
12872;DHT22;6504;53.766;9.626;2022-08-23T10:28:29;26.50;99.90
12872;DHT22;6504;53.766;9.626;2022-08-23T10:31:24;26.50;99.90
12872;DHT22;6504;53.766;9.626;2022-08-23T10:34:13;26.50;99.90
12872;DHT22;6504;53.766;9.626;2022-08-23T10:36:50;26.50;99.90
12872;DHT22;6504;53.766;9.626;2022-08-23T10:39:27;26.60;99.90
12872;DHT22;6504;53.766;9.626;2022-08-23T10:42:03;26.60;99.90
12872;DHT22;6504;53.766;9.626;2022-08-23T10:44:38;26.80;99.90
12872;DHT22;6504;53.766;9.626;2022-08-23T10:47:17;26.90;99.90
12872;DHT22;6504;53.766;9.626;2022-08-23T10:49:53;27.00;99.90
12872;DHT22;6504;53.766;9.626;2022-08-23T10:52:28;27.10;99.90
12872;DHT22;6504;53.766;9.626;2022-08-23T10:55:02;27.20;99.90
12872;DHT22;6504;53.766;9.626;2022-08-23T10:57:47;27.20;99.90
12872;DHT22;6504;53.766;9.626;2022-08-23T11:00:20;27.10;99.90
12872;DHT22;6504;53.766;9.626;2022-08-23T11:02:54;27.20;99.90
12872;DHT22;6504;53.766;9.626;2022-08-23T11:05:26;27.30;99.90
12872;DHT22;6504;53.766;9.626;2022-08-23T11:07:58;27.40;99.90
12872;DHT22;6504;53.766;9.626;2022-08-23T11:10:33;27.50;99.90
12872;DHT22;6504;53.766;9.626;2022-08-23T11:13:27;27.60;99.90
12872;DHT22;6504;53.766;9.626;2022-08-23T11:16:04;27.70;99.90
12872;DHT22;6504;53.766;9.626;2022-08-23T11:18:39;27.80;99.90
12872;DHT22;6504;53.766;9.626;2022-08-23T11:21:44;28.00;99.90
12872;DHT22;6504;53.766;9.626;2022-08-23T11:24:55;28.10;99.90
12872;DHT22;6504;53.766;9.626;2022-08-23T11:27:33;28.20;99.90
12872;DHT22;6504;53.766;9.626;2022-08-23T11:30:36;28.30;99.90
12872;DHT22;6504;53.766;9.626;2022-08-23T11:33:13;28.30;99.90
12872;DHT22;6504;53.766;9.626;2022-08-23T11:35:47;28.40;99.90
12872;DHT22;6504;53.766;9.626;2022-08-23T11:38:17;28.40;99.90
12872;DHT22;6504;53.766;9.626;2022-08-23T11:41:21;28.30;99.90
12872;DHT22;6504;53.766;9.626;2022-08-23T11:44:20;28.20;99.90
12872;DHT22;6504;53.766;9.626;2022-08-23T11:47:00;28.40;99.90
12872;DHT22;6504;53.766;9.626;2022-08-23T11:53:02;28.70;99.90
12872;DHT22;6504;53.766;9.626;2022-08-23T11:59:16;28.80;99.90
12872;DHT22;6504;53.766;9.626;2022-08-23T12:02:31;29.00;99.90
12872;DHT22;6504;53.766;9.626;2022-08-23T12:05:25;29.10;99.90
12872;DHT22;6504;53.766;9.626;2022-08-23T12:08:46;29.20;99.90
12872;DHT22;6504;53.766;9.626;2022-08-23T12:12:11;29.20;99.90
12872;DHT22;6504;53.766;9.626;2022-08-23T12:15:00;29.20;99.90
12872;DHT22;6504;53.766;9.626;2022-08-23T12:18:11;29.30;99.90
12872;DHT22;6504;53.766;9.626;2022-08-23T12:20:58;29.30;99.90
12872;DHT22;6504;53.766;9.626;2022-08-23T12:23:48;29.30;99.90
12872;DHT22;6504;53.766;9.626;2022-08-23T12:26:47;29.30;99.90
12872;DHT22;6504;53.766;9.626;2022-08-23T12:29:42;29.40;99.90
12872;DHT22;6504;53.766;9.626;2022-08-23T12:32:44;29.40;99.90
12872;DHT22;6504;53.766;9.626;2022-08-23T12:35:39;29.20;99.90
12872;DHT22;6504;53.766;9.626;2022-08-23T12:38:35;29.20;99.90
12872;DHT22;6504;53.766;9.626;2022-08-23T12:41:26;29.20;99.90
12872;DHT22;6504;53.766;9.626;2022-08-23T12:44:16;29.10;99.90
12872;DHT22;6504;53.766;9.626;2022-08-23T12:47:14;29.10;99.90
12872;DHT22;6504;53.766;9.626;2022-08-23T12:50:06;29.10;99.90
12872;DHT22;6504;53.766;9.626;2022-08-23T12:52:59;29.30;99.90
12872;DHT22;6504;53.766;9.626;2022-08-23T12:55:48;29.10;99.90
12872;DHT22;6504;53.766;9.626;2022-08-23T12:58:37;29.10;99.90
12872;DHT22;6504;53.766;9.626;2022-08-23T13:01:30;29.00;99.90
12872;DHT22;6504;53.766;9.626;2022-08-23T13:04:25;29.10;99.90
12872;DHT22;6504;53.766;9.626;2022-08-23T13:07:18;29.00;99.90
12872;DHT22;6504;53.766;9.626;2022-08-23T13:10:07;28.90;99.90
12872;DHT22;6504;53.766;9.626;2022-08-23T13:12:53;28.80;99.90
12872;DHT22;6504;53.766;9.626;2022-08-23T13:15:48;28.80;99.90
12872;DHT22;6504;53.766;9.626;2022-08-23T13:18:42;28.80;99.90
12872;DHT22;6504;53.766;9.626;2022-08-23T13:21:35;29.00;99.90
12872;DHT22;6504;53.766;9.626;2022-08-23T13:24:36;29.20;99.90
12872;DHT22;6504;53.766;9.626;2022-08-23T13:27:30;29.40;99.90
12872;DHT22;6504;53.766;9.626;2022-08-23T13:30:20;29.60;99.90
12872;DHT22;6504;53.766;9.626;2022-08-23T13:33:18;29.70;99.90
12872;DHT22;6504;53.766;9.626;2022-08-23T13:36:07;29.80;99.90
12872;DHT22;6504;53.766;9.626;2022-08-23T13:38:54;29.90;99.90
12872;DHT22;6504;53.766;9.626;2022-08-23T13:41:45;29.80;99.90
12872;DHT22;6504;53.766;9.626;2022-08-23T13:44:31;29.80;99.90
12872;DHT22;6504;53.766;9.626;2022-08-23T13:47:22;29.80;99.90
12872;DHT22;6504;53.766;9.626;2022-08-23T13:50:14;29.80;99.90
12872;DHT22;6504;53.766;9.626;2022-08-23T13:53:04;29.80;99.90
12872;DHT22;6504;53.766;9.626;2022-08-23T13:55:53;29.50;99.90
12872;DHT22;6504;53.766;9.626;2022-08-23T13:58:52;29.40;99.90
12872;DHT22;6504;53.766;9.626;2022-08-23T14:01:38;29.30;99.90
12872;DHT22;6504;53.766;9.626;2022-08-23T14:04:23;29.20;99.90
12872;DHT22;6504;53.766;9.626;2022-08-23T14:07:09;29.30;99.90
12872;DHT22;6504;53.766;9.626;2022-08-23T14:09:55;29.30;99.90
12872;DHT22;6504;53.766;9.626;2022-08-23T14:12:44;29.30;99.90
12872;DHT22;6504;53.766;9.626;2022-08-23T14:15:32;29.40;99.90
12872;DHT22;6504;53.766;9.626;2022-08-23T14:18:18;29.50;99.90
12872;DHT22;6504;53.766;9.626;2022-08-23T14:21:03;29.70;99.90
12872;DHT22;6504;53.766;9.626;2022-08-23T14:23:49;29.80;99.90
12872;DHT22;6504;53.766;9.626;2022-08-23T14:26:35;29.80;99.90
12872;DHT22;6504;53.766;9.626;2022-08-23T14:29:24;29.90;99.90
12872;DHT22;6504;53.766;9.626;2022-08-23T14:32:13;29.90;99.90
12872;DHT22;6504;53.766;9.626;2022-08-23T14:34:59;30.00;99.90
12872;DHT22;6504;53.766;9.626;2022-08-23T14:37:46;30.10;99.90
12872;DHT22;6504;53.766;9.626;2022-08-23T14:40:32;30.10;99.90
12872;DHT22;6504;53.766;9.626;2022-08-23T14:43:19;30.00;99.90
12872;DHT22;6504;53.766;9.626;2022-08-23T14:46:08;29.80;99.90
12872;DHT22;6504;53.766;9.626;2022-08-23T14:48:55;29.70;99.90
12872;DHT22;6504;53.766;9.626;2022-08-23T14:51:43;29.60;99.90
12872;DHT22;6504;53.766;9.626;2022-08-23T14:54:31;29.50;99.90
12872;DHT22;6504;53.766;9.626;2022-08-23T14:57:17;29.50;99.90
12872;DHT22;6504;53.766;9.626;2022-08-23T15:00:05;29.40;99.90
12872;DHT22;6504;53.766;9.626;2022-08-23T15:02:52;29.50;99.90
12872;DHT22;6504;53.766;9.626;2022-08-23T15:05:39;29.60;99.90
12872;DHT22;6504;53.766;9.626;2022-08-23T15:08:24;29.70;99.90
12872;DHT22;6504;53.766;9.626;2022-08-23T15:11:11;29.70;99.90
12872;DHT22;6504;53.766;9.626;2022-08-23T15:13:58;29.60;99.90
12872;DHT22;6504;53.766;9.626;2022-08-23T15:16:44;29.70;99.90
12872;DHT22;6504;53.766;9.626;2022-08-23T15:19:30;29.60;99.90
12872;DHT22;6504;53.766;9.626;2022-08-23T15:22:19;29.70;99.90
12872;DHT22;6504;53.766;9.626;2022-08-23T15:25:05;29.80;99.90
12872;DHT22;6504;53.766;9.626;2022-08-23T15:27:51;29.80;99.90
12872;DHT22;6504;53.766;9.626;2022-08-23T15:30:37;29.90;99.90
12872;DHT22;6504;53.766;9.626;2022-08-23T15:33:23;29.90;99.90
12872;DHT22;6504;53.766;9.626;2022-08-23T15:36:10;30.00;99.90
12872;DHT22;6504;53.766;9.626;2022-08-23T15:39:01;30.00;99.90
12872;DHT22;6504;53.766;9.626;2022-08-23T15:41:47;30.00;99.90
12872;DHT22;6504;53.766;9.626;2022-08-23T15:44:33;29.90;99.90
12872;DHT22;6504;53.766;9.626;2022-08-23T15:47:23;30.00;99.90
12872;DHT22;6504;53.766;9.626;2022-08-23T15:50:09;29.90;99.90
12872;DHT22;6504;53.766;9.626;2022-08-23T15:52:59;29.90;99.90
12872;DHT22;6504;53.766;9.626;2022-08-23T15:55:46;30.00;99.90
12872;DHT22;6504;53.766;9.626;2022-08-23T15:58:32;30.00;99.90
12872;DHT22;6504;53.766;9.626;2022-08-23T16:01:18;30.00;99.90
12872;DHT22;6504;53.766;9.626;2022-08-23T16:04:06;29.90;99.90
12872;DHT22;6504;53.766;9.626;2022-08-23T16:06:52;29.70;99.90
12872;DHT22;6504;53.766;9.626;2022-08-23T16:09:44;29.50;99.90
12872;DHT22;6504;53.766;9.626;2022-08-23T16:12:32;29.40;99.90
12872;DHT22;6504;53.766;9.626;2022-08-23T16:15:18;29.20;99.90
12872;DHT22;6504;53.766;9.626;2022-08-23T16:18:05;29.20;99.90
12872;DHT22;6504;53.766;9.626;2022-08-23T16:20:51;29.20;99.90
12872;DHT22;6504;53.766;9.626;2022-08-23T16:23:37;29.10;99.90
12872;DHT22;6504;53.766;9.626;2022-08-23T16:26:25;29.00;99.90
12872;DHT22;6504;53.766;9.626;2022-08-23T16:29:16;28.90;99.90
12872;DHT22;6504;53.766;9.626;2022-08-23T16:32:02;28.70;99.90
12872;DHT22;6504;53.766;9.626;2022-08-23T16:34:48;28.70;99.90
12872;DHT22;6504;53.766;9.626;2022-08-23T16:37:34;28.60;99.90
12872;DHT22;6504;53.766;9.626;2022-08-23T16:40:21;28.50;99.90
12872;DHT22;6504;53.766;9.626;2022-08-23T16:43:06;28.40;99.90
12872;DHT22;6504;53.766;9.626;2022-08-23T16:45:53;28.40;99.90
12872;DHT22;6504;53.766;9.626;2022-08-23T16:48:39;28.40;99.90
12872;DHT22;6504;53.766;9.626;2022-08-23T16:51:30;28.30;99.90
12872;DHT22;6504;53.766;9.626;2022-08-23T16:54:16;28.30;99.90
12872;DHT22;6504;53.766;9.626;2022-08-23T16:57:04;28.30;99.90
12872;DHT22;6504;53.766;9.626;2022-08-23T16:59:50;28.30;99.90
12872;DHT22;6504;53.766;9.626;2022-08-23T17:02:40;28.20;99.90
12872;DHT22;6504;53.766;9.626;2022-08-23T17:05:26;28.20;99.90
12872;DHT22;6504;53.766;9.626;2022-08-23T17:08:12;28.20;99.90
12872;DHT22;6504;53.766;9.626;2022-08-23T17:10:58;28.10;99.90